createdAt,value
2017-09-24T03:32:40.853Z,20.90
2017-09-24T03:35:08.442Z,21.85
2017-09-24T03:37:36.025Z,24.10
2017-09-24T03:40:03.761Z,26.35
2017-09-24T03:42:31.345Z,25.35
2017-09-24T03:44:58.930Z,30.25
2017-09-24T03:47:26.549Z,26.42
2017-09-24T03:49:54.137Z,25.25
2017-09-24T03:52:21.721Z,24.27
2017-09-24T03:54:49.356Z,25.05
2017-09-24T03:57:16.937Z,24.80
2017-09-24T03:59:44.513Z,31.95
2017-09-24T04:02:12.894Z,34.08
2017-09-24T04:04:41.254Z,35.20
2017-09-24T04:07:08.861Z,35.83
2017-09-24T04:09:36.447Z,36.35
2017-09-24T04:12:04.030Z,35.17
2017-09-24T04:14:31.910Z,37.90
2017-09-24T04:17:00.261Z,40.78
2017-09-24T04:19:27.846Z,36.10
2017-09-24T04:21:56.261Z,44.42
2017-09-24T04:24:23.846Z,42.85
2017-09-24T04:26:51.437Z,39.97
2017-09-24T04:29:19.040Z,39.85
2017-09-24T04:31:46.622Z,30.90
2017-09-24T04:34:14.250Z,29.50
2017-09-24T04:36:41.845Z,27.08
2017-09-24T04:39:09.425Z,26.48
2017-09-24T04:41:37.305Z,30.25
2017-09-24T04:44:05.661Z,28.17
2017-09-24T04:46:33.392Z,25.98
2017-09-24T04:49:01.009Z,27.05
2017-09-24T04:51:29.358Z,26.45
2017-09-24T04:53:56.945Z,24.42
2017-09-24T04:56:25.337Z,26.75
2017-09-24T04:58:52.923Z,23.67
2017-09-24T05:01:20.510Z,25.05
2017-09-24T05:03:48.117Z,23.55
2017-09-24T05:06:15.701Z,22.33
2017-09-24T05:08:43.285Z,31.65
2017-09-24T05:11:10.922Z,20.80
2017-09-24T05:13:38.505Z,22.60
2017-09-24T05:16:06.089Z,24.67
2017-09-24T05:18:34.473Z,24.73
2017-09-24T05:21:02.826Z,23.87
2017-09-24T05:23:30.411Z,22.92
2017-09-24T05:25:58.809Z,19.55
2017-09-24T05:28:26.389Z,21.83
2017-09-24T05:30:53.969Z,21.33
2017-09-24T05:33:21.578Z,19.23
2017-09-24T05:35:49.162Z,20.00
2017-09-24T05:38:16.778Z,20.48
2017-09-24T05:40:45.131Z,18.50
2017-09-24T05:43:12.713Z,19.65
2017-09-24T05:45:41.090Z,19.62
2017-09-24T05:48:09.773Z,16.48
2017-09-24T05:50:38.117Z,18.40
2017-09-24T05:53:05.720Z,21.00
2017-09-24T05:55:33.570Z,20.58
2017-09-24T05:58:01.958Z,18.98
2017-09-24T06:00:30.315Z,32.20
2017-09-24T06:02:57.922Z,28.90
2017-09-24T06:05:25.513Z,35.85
2017-09-24T06:07:53.101Z,28.10
2017-09-24T06:10:21.498Z,23.50
2017-09-24T06:12:49.086Z,22.17
2017-09-24T06:15:16.674Z,31.23
2017-09-24T06:17:44.285Z,29.08
2017-09-24T06:20:11.874Z,27.73
2017-09-24T06:22:39.502Z,31.70
2017-09-24T06:25:07.089Z,30.40
2017-09-24T06:27:34.673Z,26.87
2017-09-24T06:30:02.301Z,30.37
2017-09-24T06:32:29.895Z,30.33
2017-09-24T06:34:57.482Z,21.75
2017-09-24T06:37:25.106Z,25.37
2017-09-24T06:39:52.689Z,77.32
2017-09-24T06:42:21.083Z,51.33
2017-09-24T06:44:48.694Z,21.67
2017-09-24T06:47:16.281Z,27.08
2017-09-24T06:49:44.966Z,23.30
2017-09-24T06:52:13.318Z,25.17
2017-09-24T06:54:40.906Z,23.62
2017-09-24T06:57:09.490Z,26.30
2017-09-24T06:59:37.837Z,25.60
2017-09-24T07:02:05.417Z,28.77
2017-09-24T07:04:33.809Z,27.45
2017-09-24T07:07:02.159Z,27.15
2017-09-24T07:09:29.745Z,24.40
2017-09-24T07:11:58.413Z,27.62
2017-09-24T07:14:26.765Z,21.67
2017-09-24T07:16:54.346Z,18.92
2017-09-24T07:19:22.726Z,21.62
2017-09-24T07:21:51.115Z,17.60
2017-09-24T07:24:18.706Z,27.27
2017-09-24T07:26:46.312Z,21.00
2017-09-24T07:29:13.898Z,24.55
2017-09-24T07:31:41.482Z,20.98
2017-09-24T07:34:09.090Z,24.35
2017-09-24T07:36:37.486Z,21.08
2017-09-24T07:39:05.854Z,21.83
2017-09-24T07:41:34.206Z,17.48
2017-09-24T07:44:01.998Z,20.23
2017-09-24T07:46:30.345Z,19.62
2017-09-24T07:48:57.948Z,22.33
2017-09-24T07:51:25.642Z,16.35
2017-09-24T07:53:53.993Z,20.17
2017-09-24T07:56:23.521Z,22.60
2017-09-24T07:58:51.129Z,17.67
2017-09-24T08:01:19.494Z,21.65
2017-09-24T08:03:47.092Z,18.45
2017-09-24T08:06:14.702Z,24.00
2017-09-24T08:08:42.298Z,16.67
2017-09-24T08:11:10.085Z,23.65
2017-09-24T08:13:37.676Z,17.87
2017-09-24T08:16:05.302Z,19.25
2017-09-24T08:18:32.949Z,19.48
2017-09-24T08:21:00.538Z,21.95
2017-09-24T08:23:28.126Z,18.17
2017-09-24T08:25:55.855Z,19.33
2017-09-24T08:28:23.441Z,19.95
2017-09-24T08:30:51.034Z,21.02
2017-09-24T08:33:18.894Z,18.70
2017-09-24T08:35:47.250Z,18.37
2017-09-24T08:38:14.841Z,16.30
2017-09-24T08:40:42.474Z,18.40
2017-09-24T08:43:10.070Z,16.02
2017-09-24T08:45:37.662Z,16.75
2017-09-24T08:48:05.289Z,18.25
2017-09-24T08:50:32.885Z,18.30
2017-09-24T08:53:00.527Z,16.92
2017-09-24T08:55:28.118Z,16.00
2017-09-24T08:57:55.710Z,20.40
2017-09-24T09:00:23.517Z,19.95
2017-09-24T09:02:51.109Z,15.85
2017-09-24T09:05:18.697Z,19.45
2017-09-24T09:07:46.345Z,17.50
2017-09-24T09:10:14.706Z,18.92
2017-09-24T09:12:42.292Z,21.27
2017-09-24T09:15:09.921Z,22.58
2017-09-24T09:17:37.550Z,17.15
2017-09-24T09:20:05.705Z,21.08
2017-09-24T09:22:33.326Z,21.12
2017-09-24T09:25:01.692Z,17.40
2017-09-24T09:27:30.110Z,20.75
2017-09-24T09:29:57.701Z,15.35
2017-09-24T09:32:25.294Z,18.58
2017-09-24T09:35:05.766Z,16.08
2017-09-24T09:37:34.131Z,19.50
2017-09-24T09:40:02.516Z,17.00
2017-09-24T09:42:30.914Z,13.65
2017-09-24T09:44:58.514Z,17.65
2017-09-24T09:47:27.112Z,18.67
2017-09-24T09:49:54.726Z,18.75
2017-09-24T09:52:22.563Z,17.77
2017-09-24T09:54:50.921Z,19.02
2017-09-24T09:57:18.518Z,22.83
2017-09-24T09:59:46.130Z,17.62
2017-09-24T10:02:13.718Z,17.08
2017-09-24T10:04:42.402Z,17.85
2017-09-24T10:07:22.642Z,18.58
2017-09-24T10:10:02.160Z,16.95
2017-09-24T10:12:29.754Z,17.12
2017-09-24T10:14:58.111Z,19.87
2017-09-24T10:17:25.732Z,22.70
2017-09-24T10:19:53.332Z,20.08
2017-09-24T10:22:20.948Z,25.42
2017-09-24T10:24:48.546Z,18.92
2017-09-24T10:27:16.145Z,22.15
2017-09-24T10:32:42.486Z,19.70
2017-09-24T10:35:10.121Z,20.08
2017-09-24T10:37:37.714Z,19.60
2017-09-24T10:40:05.863Z,18.37
2017-09-24T10:42:34.278Z,24.75
2017-09-24T10:45:01.871Z,37.33
2017-09-24T10:47:29.461Z,17.37
2017-09-24T10:49:57.838Z,16.52
2017-09-24T10:52:26.246Z,16.73
2017-09-24T10:54:53.841Z,17.33
2017-09-24T10:57:21.442Z,16.83
2017-09-24T10:59:49.086Z,23.73
2017-09-24T11:02:17.447Z,20.12
2017-09-24T11:04:45.038Z,23.05
2017-09-24T11:07:12.653Z,21.80
2017-09-24T11:09:40.265Z,20.58
2017-09-24T11:12:07.859Z,23.75
2017-09-24T11:14:35.454Z,17.77
2017-09-24T11:17:03.834Z,22.60
2017-09-24T11:19:32.230Z,17.37
2017-09-24T11:21:59.826Z,24.02
2017-09-24T11:24:27.415Z,23.17
2017-09-24T11:26:55.208Z,17.50
2017-09-24T11:29:22.801Z,20.45
2017-09-24T11:31:50.396Z,20.48
2017-09-24T11:34:18.035Z,18.45
2017-09-24T11:36:46.390Z,28.73
2017-09-24T11:39:13.984Z,22.87
2017-09-24T11:41:41.624Z,24.12
2017-09-24T11:44:09.219Z,33.55
2017-09-24T11:46:36.838Z,22.65
2017-09-24T11:49:04.430Z,20.13
2017-09-24T11:51:32.022Z,20.07
2017-09-24T11:53:59.664Z,19.27
2017-09-24T11:56:28.026Z,16.65
2017-09-24T11:58:57.939Z,22.63
2017-09-24T12:01:25.742Z,22.20
2017-09-24T12:03:53.330Z,17.10
2017-09-24T12:06:20.918Z,15.17
2017-09-24T12:08:48.566Z,14.13
2017-09-24T12:11:16.154Z,17.43
2017-09-24T12:13:44.516Z,14.80
2017-09-24T12:16:12.154Z,14.03
2017-09-24T12:18:39.760Z,14.87
2017-09-24T12:21:08.114Z,21.97
2017-09-24T12:23:35.770Z,15.70
2017-09-24T12:26:03.358Z,19.40
2017-09-24T12:28:31.737Z,19.93
2017-09-24T12:30:59.370Z,15.80
2017-09-24T12:33:26.961Z,22.37
2017-09-24T12:35:54.549Z,20.58
2017-09-24T12:38:22.381Z,18.48
2017-09-24T12:40:49.978Z,17.27
2017-09-24T12:43:17.578Z,14.83
2017-09-24T12:45:45.209Z,18.23
2017-09-24T12:48:12.794Z,21.80
2017-09-24T12:50:41.149Z,22.67
2017-09-24T12:53:09.581Z,15.53
2017-09-24T12:55:37.270Z,19.23
2017-09-24T12:58:04.866Z,16.10
2017-09-24T13:00:32.469Z,15.23
2017-09-24T13:03:00.095Z,13.10
2017-09-24T13:05:27.682Z,23.60
2017-09-24T13:07:55.267Z,21.83
2017-09-24T13:10:22.889Z,18.20
2017-09-24T13:12:51.246Z,21.33
2017-09-24T13:15:18.835Z,28.10
2017-09-24T13:17:46.466Z,20.83
2017-09-24T13:20:14.826Z,20.85
2017-09-24T13:22:42.410Z,17.10
2017-09-24T13:25:10.818Z,20.52
2017-09-24T13:27:38.398Z,22.50
2017-09-24T13:30:05.998Z,21.42
2017-09-24T13:32:34.381Z,22.77
2017-09-24T13:35:02.746Z,15.98
2017-09-24T13:37:30.342Z,22.37
2017-09-24T13:39:57.989Z,15.27
2017-09-24T13:42:25.591Z,19.10
2017-09-24T13:44:53.190Z,14.95
2017-09-24T13:47:21.601Z,17.43
2017-09-24T13:49:49.186Z,17.10
2017-09-24T13:52:16.779Z,19.10
2017-09-24T13:54:44.418Z,19.87
2017-09-24T13:57:12.005Z,19.37
2017-09-24T13:59:40.386Z,24.70
2017-09-24T14:02:08.977Z,37.33
2017-09-24T14:04:37.338Z,30.50
2017-09-24T14:07:05.697Z,26.35
2017-09-24T14:09:33.314Z,24.40
2017-09-24T14:12:00.914Z,28.58
2017-09-24T14:14:28.538Z,23.92
2017-09-24T14:16:56.137Z,24.80
2017-09-24T14:19:23.725Z,25.33
2017-09-24T14:21:52.225Z,27.67
2017-09-24T14:24:19.823Z,24.85
2017-09-24T14:26:48.178Z,23.27
2017-09-24T14:29:15.850Z,23.38
2017-09-24T14:31:43.449Z,19.05
2017-09-24T14:34:11.810Z,21.48
2017-09-24T14:36:39.441Z,30.10
2017-09-24T14:39:07.037Z,29.00
2017-09-24T14:41:34.623Z,26.83
2017-09-24T14:44:02.253Z,22.90
2017-09-24T14:46:29.848Z,26.13
2017-09-24T14:48:57.441Z,26.27
2017-09-24T14:51:25.056Z,28.60
2017-09-24T14:53:52.690Z,22.17
2017-09-24T14:56:20.290Z,22.10
2017-09-24T14:58:47.935Z,27.10
2017-09-24T15:01:15.529Z,24.27
2017-09-24T15:03:43.114Z,27.13
2017-09-24T15:06:10.721Z,23.03
2017-09-24T15:08:38.333Z,23.80
2017-09-24T15:11:05.926Z,23.77
2017-09-24T15:13:34.305Z,23.87
2017-09-24T15:16:02.653Z,26.60
2017-09-24T15:18:30.289Z,25.00
2017-09-24T15:20:57.882Z,22.53
2017-09-24T15:23:25.480Z,21.23
2017-09-24T15:25:53.270Z,20.23
2017-09-24T15:28:21.626Z,21.20
2017-09-24T15:30:49.215Z,24.23
2017-09-24T15:33:16.853Z,21.80
2017-09-24T15:35:44.434Z,28.17
2017-09-24T15:38:12.030Z,19.13
2017-09-24T15:40:40.433Z,26.67
2017-09-24T15:43:08.025Z,36.77
2017-09-24T15:45:35.610Z,48.50
2017-09-24T15:48:03.247Z,37.10
2017-09-24T15:50:30.862Z,38.03
2017-09-24T15:52:58.459Z,34.93
2017-09-24T15:55:26.070Z,31.20
2017-09-24T15:57:54.421Z,30.60
2017-09-24T16:00:22.749Z,33.03
2017-09-24T16:02:50.366Z,26.87
2017-09-24T16:05:17.950Z,25.33
2017-09-24T16:07:45.801Z,19.63
2017-09-24T16:10:14.151Z,25.17
2017-09-24T16:12:41.742Z,24.17
2017-09-24T16:15:10.149Z,19.73
2017-09-24T16:17:37.737Z,24.90
2017-09-24T16:20:05.922Z,21.57
2017-09-24T16:22:33.537Z,26.13
2017-09-24T16:25:01.125Z,28.93
2017-09-24T16:27:28.723Z,21.57
2017-09-24T16:29:57.210Z,21.10
2017-09-24T16:32:24.813Z,32.33
2017-09-24T16:34:52.402Z,43.80
2017-09-24T16:37:20.290Z,49.73
2017-09-24T16:39:48.647Z,50.27
2017-09-24T16:42:16.266Z,28.03
2017-09-24T16:44:43.885Z,37.53
2017-09-24T16:47:12.239Z,32.33
2017-09-24T16:49:39.873Z,27.47
2017-09-24T16:52:08.229Z,41.33
2017-09-24T16:54:35.821Z,36.58
2017-09-24T16:57:03.475Z,32.55
2017-09-24T16:59:31.066Z,28.90
2017-09-24T17:01:59.434Z,32.95
2017-09-24T17:04:27.054Z,31.97
2017-09-24T17:06:54.646Z,37.47
2017-09-24T17:09:22.237Z,36.97
2017-09-24T17:11:50.640Z,27.80
2017-09-24T17:14:18.246Z,28.00
2017-09-24T17:16:45.857Z,29.17
2017-09-24T17:19:13.450Z,27.08
2017-09-24T17:21:41.250Z,26.37
2017-09-24T17:24:09.605Z,33.13
2017-09-24T17:26:37.216Z,29.12
2017-09-24T17:29:04.834Z,20.17
2017-09-24T17:31:33.193Z,21.00
2017-09-24T17:34:00.814Z,42.10
2017-09-24T17:36:28.406Z,38.00
2017-09-24T17:38:56.010Z,36.47
2017-09-24T17:41:23.626Z,35.83
2017-09-24T17:43:51.222Z,25.50
2017-09-24T17:46:18.865Z,24.45
2017-09-24T17:48:47.232Z,34.35
2017-09-24T17:51:14.833Z,26.65
2017-09-24T17:53:42.478Z,27.42
2017-09-24T17:56:10.073Z,24.50
2017-09-24T17:58:37.670Z,33.30
2017-09-24T18:01:05.322Z,32.80
2017-09-24T18:03:32.918Z,26.10
2017-09-24T18:06:00.509Z,48.05
2017-09-24T18:08:28.167Z,40.37
2017-09-24T18:10:55.762Z,35.20
2017-09-24T18:13:23.366Z,32.67
2017-09-24T18:15:51.009Z,35.53
2017-09-24T18:18:18.611Z,28.60
2017-09-24T18:20:46.202Z,35.43
2017-09-24T18:23:13.826Z,34.05
2017-09-24T18:25:41.438Z,32.97
2017-09-24T18:28:09.795Z,30.00
2017-09-24T18:30:37.392Z,46.67
2017-09-24T18:33:05.005Z,33.15
2017-09-24T18:35:32.585Z,33.50
2017-09-24T18:38:01.028Z,36.17
2017-09-24T18:40:28.665Z,32.85
2017-09-24T18:42:56.257Z,37.75
2017-09-24T18:45:23.858Z,30.00
2017-09-24T18:47:52.353Z,43.03
2017-09-24T18:50:19.957Z,44.53
2017-09-24T18:52:47.558Z,36.95
2017-09-24T18:55:15.986Z,39.90
2017-09-24T18:57:43.577Z,47.42
2017-09-24T19:00:11.165Z,45.38
2017-09-24T19:02:38.782Z,47.20
2017-09-24T19:05:06.399Z,66.10
2017-09-24T19:07:34.044Z,49.83
2017-09-24T19:10:01.635Z,42.28
2017-09-24T19:12:29.225Z,49.10
2017-09-24T19:14:56.892Z,59.13
2017-09-24T19:17:24.490Z,63.40
2017-09-24T19:19:52.086Z,61.53
2017-09-24T19:22:19.901Z,53.55
2017-09-24T19:24:47.509Z,42.80
2017-09-24T19:27:15.106Z,48.85
2017-09-24T19:29:43.503Z,49.45
2017-09-24T19:32:11.094Z,32.20
2017-09-24T19:34:38.726Z,47.67
2017-09-24T19:37:06.506Z,54.92
2017-09-24T19:39:34.099Z,49.35
2017-09-24T19:42:01.694Z,49.63
2017-09-24T19:44:29.337Z,37.88
2017-09-24T19:46:57.694Z,52.35
2017-09-24T19:49:25.290Z,38.67
2017-09-24T19:51:52.941Z,44.75
2017-09-24T19:54:20.537Z,57.55
2017-09-24T19:56:48.133Z,42.97
2017-09-24T19:59:15.759Z,47.45
2017-09-24T20:01:43.362Z,48.28
2017-09-24T20:04:11.402Z,52.33
2017-09-24T20:06:39.911Z,51.50
2017-09-24T20:09:07.505Z,53.05
2017-09-24T20:11:35.120Z,49.78
2017-09-24T20:14:02.722Z,60.65
2017-09-24T20:16:30.366Z,53.13
2017-09-24T20:18:58.725Z,56.53
2017-09-24T20:21:26.322Z,47.78
2017-09-24T20:23:54.101Z,43.45
2017-09-24T20:26:21.690Z,52.05
2017-09-24T20:28:49.281Z,62.65
2017-09-24T20:31:17.866Z,66.50
2017-09-24T20:33:46.227Z,72.15
2017-09-24T20:36:14.587Z,53.72
2017-09-24T20:38:42.202Z,55.30
2017-09-24T20:41:09.794Z,46.17
2017-09-24T20:43:37.389Z,54.22
2017-09-24T20:46:05.790Z,35.63
2017-09-24T20:48:33.398Z,46.33
2017-09-24T20:51:00.989Z,65.32
2017-09-24T20:53:29.493Z,50.80
2017-09-24T20:55:57.082Z,50.88
2017-09-24T20:58:24.674Z,58.72
2017-09-24T21:00:52.309Z,54.60
2017-09-24T21:03:19.906Z,63.85
2017-09-24T21:05:48.261Z,62.80
2017-09-24T21:08:15.879Z,56.53
2017-09-24T21:10:43.469Z,62.13
2017-09-24T21:13:11.058Z,57.50
2017-09-24T21:15:39.437Z,62.62
2017-09-24T21:18:07.807Z,57.17
2017-09-24T21:20:36.170Z,48.75
2017-09-24T21:23:03.822Z,55.42
2017-09-24T21:25:31.422Z,59.50
2017-09-24T21:27:59.014Z,50.12
2017-09-24T21:30:26.626Z,62.70
2017-09-24T21:32:54.981Z,56.05
2017-09-24T21:35:22.765Z,51.67
2017-09-24T21:37:51.199Z,53.67
2017-09-24T21:40:19.558Z,59.20
2017-09-24T21:42:47.394Z,75.15
2017-09-24T21:45:15.747Z,51.22
2017-09-24T21:47:43.337Z,58.60
2017-09-24T21:50:10.956Z,59.10
2017-09-24T21:52:38.546Z,61.08
2017-09-24T21:55:06.940Z,61.45
2017-09-24T21:57:34.534Z,47.75
2017-09-24T22:00:02.894Z,65.45
2017-09-24T22:02:30.530Z,66.47
2017-09-24T22:04:58.127Z,70.07
2017-09-24T22:07:25.710Z,65.73
2017-09-24T22:09:53.350Z,44.83
2017-09-24T22:12:20.942Z,55.60
2017-09-24T22:14:49.298Z,56.00
2017-09-24T22:17:16.933Z,66.12
2017-09-24T22:19:44.526Z,66.70
2017-09-24T22:22:12.117Z,60.97
2017-09-24T22:24:39.862Z,67.72
2017-09-24T22:27:08.218Z,66.35
2017-09-24T22:29:35.809Z,69.82
